Time;durP1;ratioP1;P1;durP2;ratioP2;P2;SDS_P1;SDS_P2;PMS_P1;PMS_P2;Temp;Humidity;BMP_temperature;BMP_pressure;BME280_temperature;BME280_humidity;BME280_pressure;Samples;Min_cycle;Max_cycle;Signal;HPM_P1;HPM_P2
2023/03/12 00:01:18;;;;;;;7.93;7.00;;;-0.80;99.90;;;-141.84;75.37;18749.03;5073251;28;20246;-58
2023/03/12 00:03:47;;;;;;;7.23;5.80;;;-0.80;99.90;;;-141.84;75.69;18761.22;5072812;28;20214;-62
2023/03/12 00:06:16;;;;;;;7.83;5.50;;;-0.80;99.90;;;-141.84;76.14;18757.16;5073337;28;20204;-59
2023/03/12 00:08:45;;;;;;;5.80;4.80;;;-0.90;99.90;;;-141.84;76.46;18767.31;5071945;28;20233;-60
2023/03/12 00:11:16;;;;;;;8.50;4.57;;;-0.90;99.90;;;-141.84;76.75;18765.28;5072539;28;20229;-60
2023/03/12 00:13:50;;;;;;;6.07;4.63;;;-0.80;99.90;;;-141.84;76.54;18769.34;5072598;28;20236;-60
2023/03/12 00:16:19;;;;;;;7.30;5.03;;;-0.80;99.90;;;-141.84;76.10;18781.53;5072541;28;20237;-60
2023/03/12 00:18:50;;;;;;;6.20;5.53;;;-0.90;99.90;;;-141.84;76.26;18765.28;5060924;28;20203;-60
2023/03/12 00:21:19;;;;;;;7.17;5.33;;;-0.90;99.90;;;-141.84;76.12;18777.47;5072924;28;20228;-59
2023/03/12 00:23:48;;;;;;;6.13;5.53;;;-0.90;99.90;;;-141.84;75.57;18763.25;5072167;28;20235;-60
2023/03/12 00:26:18;;;;;;;6.37;5.77;;;-0.80;99.90;;;-141.84;75.94;18761.22;5072608;28;20224;-59
2023/03/12 00:28:50;;;;;;;8.43;5.70;;;-0.80;99.90;;;-141.84;75.59;18773.41;5072045;28;20217;-59
2023/03/12 00:31:21;;;;;;;6.53;5.73;;;-0.80;99.90;;;-141.84;75.44;18781.53;5072491;28;20277;-59
2023/03/12 00:33:49;;;;;;;8.47;6.10;;;-0.80;99.90;;;-141.84;75.34;18789.66;5072184;28;20595;-60
2023/03/12 00:36:20;;;;;;;6.00;5.40;;;-0.80;99.90;;;-141.84;75.49;18763.25;5072976;28;20202;-58
2023/03/12 00:38:48;;;;;;;6.67;4.80;;;-0.80;99.90;;;-141.84;75.78;18775.44;5071751;28;20226;-60
2023/03/12 00:41:18;;;;;;;7.73;5.50;;;-0.90;99.90;;;-141.84;75.70;18773.41;5071921;28;20762;-59
2023/03/12 00:43:48;;;;;;;6.50;5.90;;;-0.80;99.90;;;-141.84;75.52;18785.59;5071822;28;20236;-59
2023/03/12 00:46:18;;;;;;;6.13;4.87;;;-0.90;99.90;;;-141.84;75.57;18769.34;5072269;28;20226;-59
2023/03/12 00:48:47;;;;;;;7.93;5.33;;;-0.90;99.90;;;-141.84;76.11;18730.75;5071433;28;20197;-61
2023/03/12 00:51:15;;;;;;;8.17;5.40;;;-0.90;99.90;;;-141.84;76.30;18769.34;5072602;28;20208;-59
2023/03/12 00:53:43;;;;;;;5.73;5.10;;;-0.90;99.90;;;-141.84;76.41;18753.09;5071444;28;20224;-60
2023/03/12 00:56:12;;;;;;;5.83;4.93;;;-1.00;99.90;;;-141.84;76.33;18747.00;5071816;28;20230;-59
2023/03/12 00:58:41;;;;;;;6.83;5.33;;;-1.00;99.90;;;-141.84;76.20;18747.00;5071538;28;20767;-59
2023/03/12 01:01:11;;;;;;;7.07;6.20;;;-1.00;99.90;;;-141.84;76.13;18757.16;5071999;28;20228;-59
2023/03/12 01:03:39;;;;;;;9.20;6.27;;;-1.00;99.90;;;-141.84;75.95;18744.97;5072060;28;20301;-60
2023/03/12 01:06:08;;;;;;;7.10;5.50;;;-1.00;99.90;;;-141.84;76.12;18777.47;5071558;28;20376;-59
2023/03/12 01:08:36;;;;;;;8.57;5.83;;;-1.00;99.90;;;-141.84;76.60;18771.38;5071023;28;20230;-60
2023/03/12 01:11:05;;;;;;;8.23;6.20;;;-1.00;99.90;;;-141.84;76.54;18747.00;5071461;28;20762;-59
2023/03/12 01:13:33;;;;;;;7.97;7.17;;;-1.00;99.90;;;-141.84;76.63;18726.69;5071004;28;20930;-60
2023/03/12 01:16:02;;;;;;;7.80;6.57;;;-1.00;99.90;;;-141.84;76.73;18755.13;5071216;28;20208;-59
2023/03/12 01:18:31;;;;;;;10.10;6.90;;;-1.00;99.90;;;-141.84;76.71;18779.50;5070880;28;20201;-59
2023/03/12 01:21:00;;;;;;;7.60;4.83;;;-1.00;99.90;;;-141.84;76.34;18755.13;5071101;28;20255;-60
2023/03/12 01:23:28;;;;;;;6.27;5.57;;;-1.00;99.90;;;-141.84;76.50;18749.03;5070561;28;20323;-73
2023/03/12 01:25:58;;;;;;;6.60;5.67;;;-1.00;99.90;;;-141.84;76.83;18734.81;5059291;28;20225;-72
2023/03/12 01:28:26;;;;;;;8.07;6.53;;;-1.00;99.90;;;-141.84;76.95;18757.16;5051055;28;20477;-72
2023/03/12 01:30:55;;;;;;;9.30;7.97;;;-1.10;99.90;;;-141.84;76.20;18753.09;5051063;28;20211;-71
2023/03/12 01:33:23;;;;;;;10.00;9.10;;;-1.10;99.90;;;-141.84;76.36;18744.97;5051346;28;20200;-72
2023/03/12 01:35:52;;;;;;;12.43;11.20;;;-1.00;99.90;;;-141.84;76.25;18769.34;5051096;28;20233;-72
2023/03/12 01:38:20;;;;;;;12.00;10.47;;;-1.00;99.90;;;-141.84;76.33;18777.47;5050666;28;20241;-72
2023/03/12 01:40:49;;;;;;;10.43;8.87;;;-1.10;99.90;;;-141.84;75.88;18761.22;5050889;28;20224;-73
2023/03/12 01:43:30;;;;;;;11.17;9.57;;;-1.10;99.90;;;-141.84;76.03;18736.84;5050690;28;20615;-72
2023/03/12 01:46:29;;;;;;;10.53;9.33;;;-1.10;99.90;;;-141.84;76.06;18765.28;5051254;28;20276;-73
2023/03/12 01:49:03;;;;;;;8.87;6.37;;;-1.10;99.90;;;-141.84;76.18;18785.59;5017148;28;20202;-59
2023/03/12 01:51:38;;;;;;;7.23;5.87;;;-1.10;99.90;;;-141.84;76.29;18769.34;5036875;28;20188;-59
2023/03/12 01:54:11;;;;;;;5.87;5.10;;;-1.20;99.90;;;-141.84;76.44;18740.91;5070542;28;20914;-59
2023/03/12 01:56:40;;;;;;;7.03;4.73;;;-1.20;99.90;;;-141.84;76.56;18765.28;5070908;28;20231;-60
2023/03/12 01:59:15;;;;;;;8.37;3.90;;;-1.20;99.90;;;-141.84;76.78;18753.09;5070647;28;20238;-58
2023/03/12 02:01:45;;;;;;;7.20;4.07;;;-1.20;99.90;;;-141.84;76.93;18730.75;5070776;28;20223;-59
2023/03/12 02:04:16;;;;;;;6.80;3.87;;;-1.20;99.90;;;-141.84;77.05;18734.81;5058243;28;20599;-73
2023/03/12 02:06:53;;;;;;;6.17;4.00;;;-1.20;99.90;;;-141.84;77.09;18753.09;5051355;28;20196;-73
2023/03/12 02:09:22;;;;;;;5.97;3.80;;;-1.20;99.90;;;-141.84;76.97;18722.63;5050963;28;20217;-71
2023/03/12 02:11:50;;;;;;;7.40;4.73;;;-1.20;99.90;;;-141.84;76.60;18759.19;5050558;28;20689;-73
2023/03/12 02:14:18;;;;;;;6.40;4.90;;;-1.20;99.90;;;-141.84;77.08;18734.81;5050722;28;20236;-72
2023/03/12 02:16:47;;;;;;;8.37;5.60;;;-1.20;99.90;;;-141.84;77.62;18740.91;5051167;28;20251;-73
2023/03/12 02:19:25;;;;;;;6.60;6.00;;;-1.30;99.90;;;-141.84;77.52;18704.31;5050356;28;20751;-72
2023/03/12 02:21:55;;;;;;;9.07;7.03;;;-1.30;99.90;;;-141.84;77.53;18751.06;5067601;28;20188;-73
2023/03/12 02:24:32;;;;;;;5.10;4.60;;;-1.30;99.90;;;-141.84;77.68;18759.19;5071142;28;20220;-72
2023/03/12 02:27:04;;;;;;;9.27;5.33;;;-1.30;99.90;;;-141.84;77.35;18728.72;5070751;28;20343;-74
2023/03/12 02:29:35;;;;;;;6.50;5.67;;;-1.30;99.90;;;-141.84;77.04;18740.91;5070617;28;20241;-72
2023/03/12 02:32:05;;;;;;;9.23;6.40;;;-1.30;99.90;;;-141.84;77.31;18730.75;5074808;28;20255;-74
2023/03/12 02:34:34;;;;;;;7.23;5.33;;;-1.30;99.90;;;-141.84;77.14;18726.69;5074728;28;20225;-73
2023/03/12 02:37:02;;;;;;;5.43;4.07;;;-1.30;99.90;;;-141.84;77.20;18744.97;5074554;28;20207;-73
2023/03/12 02:39:31;;;;;;;7.07;4.37;;;-1.30;99.90;;;-141.84;77.07;18718.56;5059554;28;20201;-73
2023/03/12 02:42:01;;;;;;;7.93;3.93;;;-1.30;99.90;;;-141.84;77.00;18777.47;5054138;28;20244;-73
2023/03/12 02:44:32;;;;;;;8.30;4.53;;;-1.30;99.90;;;-141.84;76.93;18744.97;5054257;28;20241;-72
2023/03/12 02:47:02;;;;;;;7.20;4.53;;;-1.30;99.90;;;-141.84;77.03;18718.56;5054102;28;20730;-72
2023/03/12 02:49:34;;;;;;;5.17;4.10;;;-1.30;99.90;;;-141.84;77.46;18722.63;5070753;28;20239;-72
2023/03/12 02:52:03;;;;;;;5.53;4.10;;;-1.30;99.90;;;-141.84;77.72;18730.75;5074193;28;20196;-73
2023/03/12 02:54:31;;;;;;;7.20;4.63;;;-1.30;99.90;;;-141.84;77.33;18765.28;5074456;28;20206;-73
2023/03/12 02:57:01;;;;;;;7.60;4.80;;;-1.20;99.90;;;-141.84;77.22;18785.59;5074199;28;20231;-73
2023/03/12 02:59:29;;;;;;;6.40;4.03;;;-1.20;99.90;;;-141.84;77.31;18742.94;5075705;28;20250;-72
2023/03/12 03:02:00;;;;;;;5.97;4.20;;;-1.30;99.90;;;-141.84;77.64;18777.47;5076499;28;20228;-72
2023/03/12 03:04:30;;;;;;;6.20;4.00;;;-1.30;99.90;;;-141.84;77.85;18724.66;5075568;28;20233;-71
2023/03/12 03:06:58;;;;;;;6.80;3.80;;;-1.30;99.90;;;-141.84;78.08;18726.69;5075208;28;20239;-73
2023/03/12 03:09:27;;;;;;;6.73;4.20;;;-1.30;99.90;;;-141.84;77.92;18730.75;5074513;28;20236;-73
2023/03/12 03:11:55;;;;;;;6.47;4.00;;;-1.30;99.90;;;-141.84;77.25;18759.19;5073827;28;20224;-73
2023/03/12 03:14:24;;;;;;;4.17;3.40;;;-1.30;99.90;;;-141.84;77.24;18736.84;5073724;28;20230;-72
2023/03/12 03:16:53;;;;;;;8.43;3.80;;;-1.30;99.90;;;-141.84;76.76;18724.66;5073735;28;20228;-72
2023/03/12 03:19:21;;;;;;;6.93;3.80;;;-1.30;99.90;;;-141.84;76.93;18738.88;5073489;28;20228;-73
2023/03/12 03:21:49;;;;;;;6.10;3.60;;;-1.30;99.90;;;-141.84;76.87;18751.06;5073368;28;20663;-71
2023/03/12 03:24:17;;;;;;;7.73;3.63;;;-1.30;99.90;;;-141.84;76.78;18749.03;5073969;28;20227;-73
2023/03/12 03:26:45;;;;;;;6.43;3.77;;;-1.30;99.90;;;-141.84;76.80;18744.97;5073705;28;20243;-72
2023/03/12 03:29:14;;;;;;;6.07;3.80;;;-1.30;99.90;;;-141.84;76.94;18726.69;5073587;28;20567;-72
2023/03/12 03:31:43;;;;;;;5.43;3.63;;;-1.40;99.90;;;-141.84;76.04;18761.22;5073680;28;20244;-73
2023/03/12 03:34:12;;;;;;;5.10;3.83;;;-1.30;99.90;;;-141.84;76.22;18773.41;5073722;28;20592;-72
2023/03/12 03:36:40;;;;;;;5.63;3.57;;;-1.30;99.90;;;-141.84;75.68;18783.56;5073892;28;20204;-72
2023/03/12 03:39:08;;;;;;;4.83;3.20;;;-1.30;99.90;;;-141.84;75.52;18757.16;5072994;28;20236;-71
2023/03/12 03:41:37;;;;;;;5.47;3.10;;;-1.30;99.90;;;-141.84;75.85;18724.66;5071987;28;20236;-72
2023/03/12 03:44:06;;;;;;;4.40;3.13;;;-1.30;99.90;;;-141.84;75.02;18777.47;5073254;28;20243;-72
2023/03/12 03:46:35;;;;;;;4.00;3.23;;;-1.30;99.90;;;-141.84;75.75;18747.00;5073672;28;20223;-72
2023/03/12 03:49:05;;;;;;;7.13;3.87;;;-1.30;99.90;;;-141.84;76.28;18720.59;5073400;28;20224;-71
2023/03/12 03:51:34;;;;;;;8.13;3.57;;;-1.30;99.90;;;-141.84;75.72;18742.94;5076251;28;20641;-72
2023/03/12 03:54:02;;;;;;;4.00;3.20;;;-1.40;99.90;;;-141.84;75.96;18744.97;5093010;28;20710;-72
2023/03/12 03:56:31;;;;;;;5.07;3.60;;;-1.40;99.90;;;-141.84;76.17;18726.69;5093209;28;20262;-72
2023/03/12 03:59:00;;;;;;;5.30;3.50;;;-1.40;99.90;;;-141.84;76.09;18747.00;5093042;28;20224;-73
2023/03/12 04:01:29;;;;;;;5.00;3.10;;;-1.40;99.90;;;-141.84;75.29;18736.84;5092988;28;20591;-73
2023/03/12 04:03:58;;;;;;;5.00;3.60;;;-1.40;99.90;;;-141.84;75.49;18773.41;5082319;28;20208;-73
2023/03/12 04:06:28;;;;;;;3.77;3.20;;;-1.40;99.90;;;-141.84;75.19;18736.84;5073204;28;20204;-72
2023/03/12 04:08:57;;;;;;;5.33;3.37;;;-1.40;99.90;;;-141.84;75.79;18761.22;5072664;28;20224;-72
2023/03/12 04:11:27;;;;;;;4.47;3.53;;;-1.30;99.90;;;-141.84;76.41;18720.59;5072513;28;20251;-71
2023/03/12 04:13:55;;;;;;;6.33;3.60;;;-1.40;99.90;;;-141.84;76.54;18785.59;5072759;28;20224;-73
2023/03/12 04:16:23;;;;;;;6.03;3.70;;;-1.40;99.90;;;-141.84;76.58;18767.31;5072741;28;20220;-72
2023/03/12 04:18:51;;;;;;;4.10;3.70;;;-1.40;99.90;;;-141.84;76.79;18732.78;5072496;28;20207;-71
2023/03/12 04:21:20;;;;;;;6.27;4.53;;;-1.60;99.90;;;-141.84;76.81;18732.78;5072684;28;20239;-72
2023/03/12 04:23:49;;;;;;;4.20;3.30;;;-1.40;99.90;;;-141.84;76.35;18736.84;5072245;28;20232;-73
2023/03/12 04:26:17;;;;;;;4.77;3.23;;;-1.40;99.90;;;-141.84;75.61;18730.75;5072272;28;20719;-73
2023/03/12 04:28:45;;;;;;;5.30;2.93;;;-1.40;99.90;;;-141.84;75.91;18692.13;5072309;28;20232;-72
2023/03/12 04:31:13;;;;;;;4.37;3.20;;;-1.40;99.90;;;-141.84;75.82;18726.69;5071970;28;20254;-73
2023/03/12 04:33:42;;;;;;;4.13;3.07;;;-1.50;99.90;;;-141.84;75.62;18722.63;5072796;28;20209;-74
2023/03/12 04:36:12;;;;;;;3.60;2.93;;;-1.50;99.90;;;-141.84;75.85;18722.63;5071875;28;20228;-73
2023/03/12 04:38:40;;;;;;;3.03;2.80;;;-1.30;99.90;;;-141.84;76.17;18740.91;5071972;28;20239;-73
2023/03/12 04:41:13;;;;;;;3.50;2.70;;;-1.50;99.90;;;-141.84;76.51;18742.94;5071892;28;20630;-73
2023/03/12 04:43:41;;;;;;;2.73;2.53;;;-1.50;99.90;;;-141.84;76.36;18724.66;5071986;28;20217;-73
2023/03/12 04:46:10;;;;;;;2.90;2.60;;;-1.50;99.90;;;-141.84;76.67;18720.59;5071861;28;20231;-74
2023/03/12 04:48:39;;;;;;;4.20;2.80;;;-1.50;99.90;;;-141.84;76.88;18720.59;5071937;28;20251;-72
2023/03/12 04:51:07;;;;;;;3.30;2.80;;;-1.60;99.90;;;-141.84;77.23;18712.47;5071791;28;20224;-73
2023/03/12 04:53:35;;;;;;;3.77;2.57;;;-1.60;99.90;;;-141.84;77.30;18704.31;5051399;28;20232;-73
2023/03/12 04:56:04;;;;;;;6.07;3.00;;;-1.60;99.90;;;-141.84;77.08;18726.69;5051863;28;20226;-73
2023/03/12 04:58:34;;;;;;;4.83;3.00;;;-1.60;99.90;;;-141.84;76.33;18749.03;5051551;28;20231;-72
2023/03/12 05:01:04;;;;;;;3.27;2.30;;;;;;;-141.84;75.46;18726.69;5068304;28;20211;-72
2023/03/12 05:03:34;;;;;;;3.83;2.47;;;;;;;-141.84;74.93;18744.97;5072171;28;20198;-73
2023/03/12 05:06:02;;;;;;;4.37;2.53;;;;;;;-141.84;75.24;18734.81;5071195;28;20274;-73
2023/03/12 05:08:31;;;;;;;3.07;2.50;;;;;;;-141.84;75.37;18744.97;5070956;28;20581;-73
2023/03/12 05:10:59;;;;;;;4.33;2.80;;;;;;;-141.84;75.91;18724.66;5070969;28;20224;-73
2023/03/12 05:13:27;;;;;;;5.93;2.67;;;-1.30;99.90;;;-141.84;76.09;18740.91;5071306;28;20734;-73
2023/03/12 05:15:57;;;;;;;4.93;2.87;;;-1.30;99.90;;;-141.84;76.28;18712.47;5071714;28;20201;-72
2023/03/12 05:18:25;;;;;;;3.00;2.53;;;-1.50;99.90;;;-141.84;76.26;18736.84;5071619;28;20228;-74
2023/03/12 05:21:06;;;;;;;3.83;2.80;;;-1.50;99.90;;;-141.84;77.18;18740.91;5071330;28;20246;-73
2023/03/12 05:23:35;;;;;;;5.27;2.23;;;-1.50;99.90;;;-141.84;77.17;18712.47;5071229;28;20326;-73
2023/03/12 05:26:03;;;;;;;2.70;2.50;;;-1.50;99.90;;;-141.84;76.87;18720.59;5071303;28;20232;-72
2023/03/12 05:28:32;;;;;;;5.60;2.70;;;-1.60;99.90;;;-141.84;76.78;18692.13;5071340;28;20220;-72
2023/03/12 05:31:01;;;;;;;3.07;2.60;;;-1.60;99.90;;;-141.84;76.78;18749.03;5071411;28;20215;-74
2023/03/12 05:33:30;;;;;;;6.00;2.70;;;-1.50;99.90;;;-141.84;76.35;18704.31;5071842;28;20210;-73
2023/03/12 05:35:58;;;;;;;3.03;2.40;;;-1.50;99.90;;;-141.84;75.69;18755.13;5071171;28;20304;-73
2023/03/12 05:38:26;;;;;;;3.90;2.60;;;-1.50;99.90;;;-141.84;75.21;18720.59;5070844;28;20742;-72
2023/03/12 05:40:58;;;;;;;4.93;3.13;;;-1.40;99.90;;;-141.84;75.88;18755.13;5071194;28;20348;-72
2023/03/12 05:43:27;;;;;;;2.80;2.50;;;-1.50;99.90;;;-141.84;76.60;18720.59;5071333;28;20299;-73
2023/03/12 05:46:02;;;;;;;3.60;2.67;;;-1.40;99.90;;;-141.84;77.04;18718.56;5072317;28;20227;-73
2023/03/12 05:48:31;;;;;;;3.80;2.93;;;-1.50;99.90;;;-141.84;77.04;18726.69;5072139;28;20654;-75
2023/03/12 05:50:59;;;;;;;4.40;2.73;;;-1.40;99.90;;;-141.84;77.09;18738.88;5072970;28;20231;-73
2023/03/12 05:53:27;;;;;;;3.83;2.70;;;-1.40;99.90;;;-141.84;76.56;18744.97;5072089;28;20238;-73
2023/03/12 05:56:01;;;;;;;3.00;2.63;;;-1.40;99.90;;;-141.84;76.47;18728.72;5072034;28;20223;-74
2023/03/12 05:58:30;;;;;;;3.47;3.07;;;-1.40;99.90;;;-141.84;76.97;18728.72;5072285;28;20223;-75
2023/03/12 06:00:58;;;;;;;3.90;2.80;;;-1.40;99.90;;;-141.84;77.09;18718.56;5072336;28;20200;-72
2023/03/12 06:03:28;;;;;;;4.97;2.60;;;-1.30;99.90;;;-141.84;76.37;18740.91;5072948;28;20196;-73
2023/03/12 06:05:56;;;;;;;3.27;2.70;;;-1.30;99.90;;;-141.84;76.19;18761.22;5074172;28;20231;-73
2023/03/12 06:08:25;;;;;;;4.73;2.83;;;-1.20;99.90;;;-141.84;76.16;18722.63;5076062;28;20231;-74
2023/03/12 06:10:53;;;;;;;3.37;2.60;;;-1.20;99.90;;;-141.84;76.26;18753.09;5075784;28;20220;-72
2023/03/12 06:13:22;;;;;;;4.13;2.73;;;-1.20;99.90;;;-141.84;76.33;18761.22;5078221;28;20559;-73
2023/03/12 06:15:50;;;;;;;3.10;2.60;;;-1.20;99.90;;;-141.84;76.20;18753.09;5075828;28;20201;-75
2023/03/12 06:18:18;;;;;;;3.03;2.73;;;-1.20;99.90;;;-141.84;76.17;18759.19;5076337;28;20226;-71
2023/03/12 06:20:48;;;;;;;4.47;2.67;;;-1.10;99.90;;;-141.84;75.31;18783.56;5075809;28;20244;-72
2023/03/12 06:23:16;;;;;;;5.20;2.87;;;-1.10;99.90;;;-141.84;74.76;18773.41;5075218;28;20231;-72
2023/03/12 06:25:47;;;;;;;4.20;2.40;;;-0.90;99.90;;;-141.84;74.35;18730.75;5075334;28;20235;-72
2023/03/12 06:28:15;;;;;;;3.50;2.70;;;-0.80;99.90;;;-141.84;72.91;18765.28;5075078;28;20249;-72
2023/03/12 06:30:44;;;;;;;4.40;3.07;;;-0.60;99.90;;;-141.84;72.59;18812.00;5076327;28;20204;-71
2023/03/12 06:33:13;;;;;;;2.90;2.40;;;-0.50;99.90;;;-141.84;72.27;18795.75;5075870;28;20228;-72
2023/03/12 06:35:41;;;;;;;3.27;2.40;;;-0.30;99.90;;;-141.84;71.37;18814.03;5074911;28;20225;-72
2023/03/12 06:38:11;;;;;;;3.50;2.40;;;-0.10;99.90;;;-141.84;70.29;18822.19;5074238;28;20289;-71
2023/03/12 06:40:39;;;;;;;3.47;2.17;;;0.10;99.90;;;-141.84;69.76;18814.03;5074347;28;20220;-71
2023/03/12 06:43:11;;;;;;;3.70;2.20;;;0.30;99.90;;;-141.84;68.59;18854.69;5074302;28;20227;-71
2023/03/12 06:45:39;;;;;;;3.47;2.30;;;0.40;99.90;;;-141.84;67.71;18850.63;5091276;28;20295;-72
2023/03/12 06:48:10;;;;;;;4.17;2.53;;;;;;;-141.84;67.62;18848.59;5088775;28;20229;-71
2023/03/12 06:50:38;;;;;;;4.00;2.27;;;;;;;-141.84;67.11;18832.34;5074159;28;20362;-74
2023/03/12 06:53:06;;;;;;;5.00;2.17;;;;;;;-141.84;66.64;18846.56;5074002;28;20230;-72
2023/03/12 06:55:36;;;;;;;3.43;2.20;;;;;;;-141.84;66.91;18860.78;5073914;28;20420;-73
2023/03/12 06:58:05;;;;;;;5.27;2.60;;;;;;;-141.84;67.21;18840.47;5074251;28;20213;-73
2023/03/12 07:00:34;;;;;;;3.83;2.70;;;;;;;-141.84;67.18;18885.16;5074577;28;20207;-71
2023/03/12 07:03:02;;;;;;;3.90;2.70;;;;;;;-141.84;66.57;18858.75;5073691;28;20247;-71
2023/03/12 07:05:31;;;;;;;4.73;2.70;;;;;;;-141.84;65.14;18840.47;5073549;28;20231;-73
2023/03/12 07:08:00;;;;;;;4.77;2.50;;;;;;;-141.84;64.74;18883.13;5073536;28;20228;-71
2023/03/12 07:10:29;;;;;;;3.30;1.93;;;;;;;-141.84;64.35;18893.28;5073729;28;20242;-71
2023/03/12 07:12:58;;;;;;;3.23;2.43;;;;;;;-141.84;64.76;18891.25;5074070;28;20196;-71
2023/03/12 07:15:27;;;;;;;4.00;2.20;;;;;;;-141.84;63.85;18903.44;5074227;28;20201;-71
2023/03/12 07:17:59;;;;;;;2.73;2.10;;;;;;;-141.84;64.54;18897.34;5073480;28;20220;-72
2023/03/12 07:20:27;;;;;;;3.17;2.50;;;1.70;99.90;;;-141.84;63.60;18925.81;5073325;28;20243;-73
2023/03/12 07:22:55;;;;;;;4.17;2.20;;;1.70;99.90;;;-141.84;62.70;18931.91;5073539;28;20445;-71
2023/03/12 07:25:24;;;;;;;3.37;2.47;;;1.80;99.90;;;-141.84;62.78;18913.59;5073407;28;20229;-71
2023/03/12 07:27:53;;;;;;;4.47;2.23;;;1.80;99.90;;;-141.84;61.38;18962.38;5073320;28;20221;-70
2023/03/12 07:30:23;;;;;;;4.67;2.50;;;1.90;99.90;;;-141.84;61.13;18994.88;5073818;28;20243;-71
2023/03/12 07:32:51;;;;;;;3.17;2.40;;;2.10;99.90;;;-141.84;60.69;18944.09;5073450;28;20590;-71
2023/03/12 07:35:19;;;;;;;4.43;2.30;;;2.10;99.90;;;-141.84;60.31;18933.94;5073312;28;20288;-71
2023/03/12 07:37:47;;;;;;;3.80;2.10;;;2.20;99.90;;;-141.84;60.41;18968.47;5073455;28;20298;-72
2023/03/12 07:40:16;;;;;;;3.77;2.30;;;2.40;99.90;;;-141.84;59.69;18970.50;5072820;28;20401;-71
2023/03/12 07:42:44;;;;;;;3.17;2.20;;;2.50;99.90;;;-141.84;59.86;19009.09;5073904;28;20197;-71
2023/03/12 07:45:12;;;;;;;2.97;2.00;;;2.50;99.90;;;-141.84;60.18;18978.63;5085951;28;20673;-71
2023/03/12 07:47:42;;;;;;;2.70;2.13;;;2.50;99.90;;;-141.84;59.48;19005.03;5091667;28;20230;-72
2023/03/12 07:50:12;;;;;;;4.07;2.43;;;2.60;99.90;;;-141.84;59.03;19017.25;5072743;28;20321;-72
2023/03/12 07:52:40;;;;;;;2.30;2.10;;;2.70;99.90;;;-141.84;59.18;19005.03;5073762;28;20221;-71
2023/03/12 07:55:10;;;;;;;3.63;2.40;;;2.80;99.90;;;-141.84;59.13;19031.47;5073031;28;20916;-72
2023/03/12 07:57:39;;;;;;;2.77;2.07;;;2.80;99.90;;;-141.84;58.90;19035.53;5074971;28;20202;-74
2023/03/12 08:00:09;;;;;;;3.30;1.97;;;2.90;99.90;;;-141.84;58.03;19021.31;5073457;28;20310;-71
2023/03/12 08:02:38;;;;;;;2.70;2.10;;;3.10;99.90;;;-141.84;58.22;19047.72;5073416;28;20230;-72
2023/03/12 08:05:10;;;;;;;3.40;2.00;;;3.20;99.90;;;-141.84;58.16;19055.84;5073088;28;20222;-71
2023/03/12 08:07:38;;;;;;;6.60;2.30;;;3.30;99.90;;;-141.84;58.40;19041.63;5073238;28;20656;-72
2023/03/12 08:10:10;;;;;;;4.77;2.60;;;3.20;99.90;;;-141.84;58.07;19035.53;5073398;28;20238;-71
2023/03/12 08:12:38;;;;;;;3.70;2.20;;;3.30;99.90;;;-141.84;58.42;19027.41;5074272;28;20615;-71
2023/03/12 08:15:08;;;;;;;3.47;2.50;;;3.40;99.90;;;-141.84;57.97;19080.22;5073203;28;20228;-72
2023/03/12 08:17:36;;;;;;;3.13;2.30;;;3.50;99.90;;;-141.84;56.10;19110.72;5072927;28;20238;-71
2023/03/12 08:20:08;;;;;;;3.63;2.40;;;3.60;99.90;;;-141.84;55.27;19153.38;5072592;28;20246;-71
2023/03/12 08:22:39;;;;;;;3.23;2.20;;;3.80;99.90;;;-141.84;55.84;19084.28;5072802;28;20231;-70
2023/03/12 08:25:08;;;;;;;5.87;2.60;;;3.80;99.90;;;-141.84;56.67;19131.03;5072895;28;20243;-71
2023/03/12 08:27:36;;;;;;;4.97;3.00;;;3.70;99.90;;;-141.84;56.85;19112.75;5072697;28;20641;-72
2023/03/12 08:30:06;;;;;;;2.83;2.10;;;3.90;99.90;;;-141.84;56.03;19118.84;5072284;28;20317;-71
2023/03/12 08:32:34;;;;;;;2.97;1.90;;;4.10;99.90;;;-141.84;55.15;19139.16;5072340;28;20711;-71
2023/03/12 08:35:04;;;;;;;2.80;2.13;;;4.10;99.90;;;-141.84;55.40;19147.28;5072396;28;20228;-71
2023/03/12 08:37:32;;;;;;;3.20;2.30;;;4.10;99.90;;;-141.84;55.19;19155.41;5072052;28;20224;-71
2023/03/12 08:40:04;;;;;;;3.60;2.40;;;4.30;99.90;;;-141.84;55.48;19163.53;5072197;28;20216;-73
2023/03/12 08:42:32;;;;;;;4.07;2.20;;;4.30;99.90;;;-141.84;53.99;19200.13;5072933;28;20193;-74
2023/03/12 08:45:00;;;;;;;4.50;1.80;;;4.50;99.90;;;-141.84;53.27;19183.84;5071956;28;20243;-74
2023/03/12 08:47:28;;;;;;;2.30;1.90;;;4.60;99.90;;;-141.84;53.07;19216.38;5071836;28;20227;-71
2023/03/12 08:49:57;;;;;;;3.03;1.90;;;4.80;99.90;;;-141.84;53.26;19238.72;5072285;28;20835;-72
2023/03/12 08:52:25;;;;;;;2.30;1.70;;;4.90;99.90;;;-141.84;52.25;19232.63;5071534;28;20228;-73
2023/03/12 08:54:53;;;;;;;3.40;1.97;;;5.10;99.90;;;-141.84;52.15;19248.88;5071672;28;20551;-71
2023/03/12 08:57:23;;;;;;;2.87;1.87;;;5.30;99.90;;;-141.84;51.92;19224.50;5072362;28;20228;-72
2023/03/12 08:59:51;;;;;;;3.50;2.00;;;5.40;99.90;;;-141.84;51.64;19301.72;5071757;28;20294;-72
2023/03/12 09:02:19;;;;;;;3.70;1.80;;;5.30;99.90;;;-141.84;51.18;19293.59;5071698;28;20235;-71
2023/03/12 09:04:49;;;;;;;2.77;2.20;;;5.50;99.90;;;-141.84;51.04;19305.78;5071818;28;20228;-69
2023/03/12 09:07:18;;;;;;;6.13;2.13;;;5.60;99.90;;;-141.84;50.42;19295.63;5071301;28;20236;-73
2023/03/12 09:09:46;;;;;;;3.00;1.90;;;5.70;99.90;;;-141.84;50.67;19315.94;5071908;28;20217;-71
2023/03/12 09:12:14;;;;;;;3.53;2.20;;;5.70;99.90;;;-141.84;49.84;19297.66;5071666;28;20216;-71
2023/03/12 09:14:44;;;;;;;3.60;1.80;;;5.60;99.90;;;-141.84;50.23;19317.97;5071429;28;20228;-71
2023/03/12 09:17:32;;;;;;;3.57;2.00;;;5.60;99.90;;;-141.84;49.94;19307.81;5071117;28;20347;-72
2023/03/12 09:20:00;;;;;;;4.47;2.00;;;5.60;99.90;;;-141.84;49.83;19309.84;5071309;28;20251;-72
2023/03/12 09:22:30;;;;;;;1.90;1.70;;;5.70;99.90;;;-141.84;49.75;19297.66;5070386;28;20226;-71
2023/03/12 09:24:58;;;;;;;4.80;2.40;;;5.70;99.90;;;-141.84;50.50;19273.28;5070433;28;20212;-72
2023/03/12 09:27:26;;;;;;;2.90;2.03;;;5.70;99.90;;;-141.84;50.95;19295.63;5070846;28;20231;-71
2023/03/12 09:29:55;;;;;;;2.83;2.10;;;5.60;99.90;;;-141.84;51.70;19269.22;5070270;28;20254;-71
2023/03/12 09:32:28;;;;;;;3.60;1.97;;;5.40;99.90;;;-141.84;50.24;19287.50;5070071;28;20228;-72
2023/03/12 09:34:56;;;;;;;3.13;1.93;;;5.40;99.90;;;-141.84;51.08;19261.06;5070183;28;20624;-73
2023/03/12 09:37:24;;;;;;;3.17;1.90;;;5.30;99.90;;;-141.84;51.37;19259.03;5070051;28;20224;-71
2023/03/12 09:39:53;;;;;;;2.87;1.67;;;5.30;99.90;;;-141.84;50.81;19271.25;5069139;28;20212;-72
2023/03/12 09:42:27;;;;;;;3.67;2.30;;;5.40;99.90;;;-141.84;49.89;19285.47;5067054;28;20219;-71
2023/03/12 09:45:03;;;;;;;3.80;2.10;;;5.50;99.90;;;-141.84;49.50;19334.22;5069939;28;20604;-71
2023/03/12 09:47:35;;;;;;;2.77;1.83;;;5.60;99.90;;;-141.84;48.88;19328.13;5069719;28;20636;-70
2023/03/12 09:50:19;;;;;;;2.63;1.90;;;5.80;99.90;;;-141.84;48.28;19362.69;5069865;28;20232;-71
2023/03/12 09:52:57;;;;;;;3.87;2.20;;;6.00;99.90;;;-141.84;47.79;19391.13;5069755;28;20224;-73
2023/03/12 09:55:28;;;;;;;4.50;2.50;;;6.20;99.90;;;-141.84;47.24;19441.94;5069527;28;20595;-71
2023/03/12 09:57:58;;;;;;;2.90;2.20;;;6.40;99.90;;;-141.84;46.86;19421.63;5069842;28;20203;-71
2023/03/12 10:00:33;;;;;;;3.83;2.50;;;6.70;99.90;;;-141.84;46.22;19478.50;5070706;28;20205;-71
2023/03/12 10:03:42;;;;;;;2.60;2.37;;;6.80;99.90;;;-141.84;45.05;19482.56;5069568;28;20629;-72
2023/03/12 10:06:15;;;;;;;5.50;2.70;;;6.90;99.90;;;-141.84;44.98;19464.28;5068743;28;20223;-73
2023/03/12 10:09:04;;;;;;;3.40;2.80;;;6.90;99.90;;;-141.84;44.43;19500.88;5063785;28;20217;-72
2023/03/12 10:11:50;;;;;;;3.17;2.87;;;6.90;99.90;;;-141.84;45.71;19439.91;5053954;28;20247;-72
2023/03/12 10:14:38;;;;;;;4.00;2.33;;;6.80;99.90;;;-141.84;45.58;19439.91;5050129;28;20221;-71
2023/03/12 10:17:38;;;;;;;4.37;2.60;;;6.70;99.90;;;-141.84;46.16;19425.69;5055514;28;20247;-70
2023/03/12 10:20:50;;;;;;;3.87;2.77;;;6.60;99.90;;;-141.84;46.33;19454.13;5069822;28;20294;-71
2023/03/12 10:23:34;;;;;;;4.57;2.50;;;6.40;99.90;;;-141.84;47.38;19397.22;5069011;28;20227;-72
2023/03/12 10:26:10;;;;;;;3.57;2.57;;;6.50;99.90;;;-141.84;46.93;19417.56;5069719;28;20224;-73